<?xml version="1.0" encoding="UTF-8" standalone="no" ?>
<gpx xmlns="http://www.topografix.com/GPX/1/1" xmlns:xsi="http://www.w3.org/2001/XMLSchema-instance" xsi:schemaLocation="http://www.topografix.com/GPX/1/1 http://www.topografix.com/GPX/1/1/gpx.xsd" version="1.1" creator="VisuGPX - https://www.visugpx.com">
  <metadata>
    <name>lundi 2015 09</name>
    <desc><![CDATA[cumul septembre 2015]]></desc>
  </metadata>
  <trk>
    <name><![CDATA[lundi 2015 09 28]]></name>
    <extensions>
      <line xmlns="http://www.topografix.com/GPX/gpx_style/0/2">
        <color>000000</color>
      </line>
    </extensions>
    <trkseg>
      <trkpt lat="48.86009" lon="2.33375">
        <ele>15.199999809265</ele>
        <time>2015-09-28T19:25:44Z</time>
      </trkpt>
      <trkpt lat="48.85999" lon="2.33363">
        <ele>22.39999961853</ele>
        <time>2015-09-28T19:25:51Z</time>
      </trkpt>
      <trkpt lat="48.86" lon="2.33369">
        <ele>20</ele>
        <time>2015-09-28T19:25:52Z</time>
      </trkpt>
      <trkpt lat="48.85987" lon="2.3335">
        <ele>21.39999961853</ele>
        <time>2015-09-28T19:26:01Z</time>
      </trkpt>
      <trkpt lat="48.85977" lon="2.33339">
        <ele>24</ele>
        <time>2015-09-28T19:26:08Z</time>
      </trkpt>
      <trkpt lat="48.85964" lon="2.33325">
        <ele>24.39999961853</ele>
        <time>2015-09-28T19:26:19Z</time>
      </trkpt>
      <trkpt lat="48.85963" lon="2.33324">
        <ele>24</ele>
        <time>2015-09-28T19:26:21Z</time>
      </trkpt>
      <trkpt lat="48.85954" lon="2.33318">
        <ele>24.799999237061</ele>
        <time>2015-09-28T19:27:40Z</time>
      </trkpt>
      <trkpt lat="48.85943" lon="2.33316">
        <ele>25.200000762939</ele>
        <time>2015-09-28T19:27:46Z</time>
      </trkpt>
      <trkpt lat="48.85934" lon="2.33313">
        <ele>27.39999961853</ele>
        <time>2015-09-28T19:29:42Z</time>
      </trkpt>
      <trkpt lat="48.85933" lon="2.33312">
        <ele>27.60000038147</ele>
        <time>2015-09-28T19:29:43Z</time>
      </trkpt>
      <trkpt lat="48.85914" lon="2.33301">
        <ele>28.60000038147</ele>
        <time>2015-09-28T19:29:52Z</time>
      </trkpt>
      <trkpt lat="48.85894" lon="2.33291">
        <ele>30</ele>
        <time>2015-09-28T19:30:00Z</time>
      </trkpt>
      <trkpt lat="48.85879" lon="2.33283">
        <ele>32.20000076294</ele>
        <time>2015-09-28T19:30:10Z</time>
      </trkpt>
      <trkpt lat="48.85866" lon="2.33277">
        <ele>27.60000038147</ele>
        <time>2015-09-28T19:31:26Z</time>
      </trkpt>
      <trkpt lat="48.85868" lon="2.33249">
        <ele>27.60000038147</ele>
        <time>2015-09-28T19:31:40Z</time>
      </trkpt>
      <trkpt lat="48.85871" lon="2.33219">
        <ele>28.60000038147</ele>
        <time>2015-09-28T19:31:51Z</time>
      </trkpt>
      <trkpt lat="48.85877" lon="2.33191">
        <ele>31.39999961853</ele>
        <time>2015-09-28T19:32:03Z</time>
      </trkpt>
      <trkpt lat="48.85881" lon="2.33163">
        <ele>35.400001525879</ele>
        <time>2015-09-28T19:32:13Z</time>
      </trkpt>
      <trkpt lat="48.85888" lon="2.33134">
        <ele>42.79999923706</ele>
        <time>2015-09-28T19:32:23Z</time>
      </trkpt>
      <trkpt lat="48.85897" lon="2.3311">
        <ele>47.599998474121</ele>
        <time>2015-09-28T19:32:31Z</time>
      </trkpt>
      <trkpt lat="48.85905" lon="2.33084">
        <ele>48.599998474121</ele>
        <time>2015-09-28T19:32:38Z</time>
      </trkpt>
      <trkpt lat="48.85913" lon="2.33057">
        <ele>46.400001525879</ele>
        <time>2015-09-28T19:32:46Z</time>
      </trkpt>
      <trkpt lat="48.85921" lon="2.33031">
        <ele>45.400001525879</ele>
        <time>2015-09-28T19:32:52Z</time>
      </trkpt>
      <trkpt lat="48.85928" lon="2.33006">
        <ele>44.79999923706</ele>
        <time>2015-09-28T19:32:58Z</time>
      </trkpt>
      <trkpt lat="48.85937" lon="2.32979">
        <ele>44.20000076294</ele>
        <time>2015-09-28T19:33:05Z</time>
      </trkpt>
      <trkpt lat="48.85944" lon="2.32956">
        <ele>40</ele>
        <time>2015-09-28T19:33:16Z</time>
      </trkpt>
      <trkpt lat="48.85949" lon="2.3293">
        <ele>35.599998474121</ele>
        <time>2015-09-28T19:33:40Z</time>
      </trkpt>
      <trkpt lat="48.85959" lon="2.32906">
        <ele>33.400001525879</ele>
        <time>2015-09-28T19:33:47Z</time>
      </trkpt>
      <trkpt lat="48.85969" lon="2.3288">
        <ele>32</ele>
        <time>2015-09-28T19:33:53Z</time>
      </trkpt>
      <trkpt lat="48.85978" lon="2.32852">
        <ele>30.60000038147</ele>
        <time>2015-09-28T19:33:59Z</time>
      </trkpt>
      <trkpt lat="48.85986" lon="2.32825">
        <ele>30.200000762939</ele>
        <time>2015-09-28T19:34:05Z</time>
      </trkpt>
      <trkpt lat="48.85996" lon="2.32799">
        <ele>28</ele>
        <time>2015-09-28T19:34:12Z</time>
      </trkpt>
      <trkpt lat="48.86006" lon="2.32776">
        <ele>25.39999961853</ele>
        <time>2015-09-28T19:34:22Z</time>
      </trkpt>
      <trkpt lat="48.86018" lon="2.32755">
        <ele>25.39999961853</ele>
        <time>2015-09-28T19:34:28Z</time>
      </trkpt>
      <trkpt lat="48.86031" lon="2.3273">
        <ele>25</ele>
        <time>2015-09-28T19:34:33Z</time>
      </trkpt>
      <trkpt lat="48.86041" lon="2.32704">
        <ele>23</ele>
        <time>2015-09-28T19:34:36Z</time>
      </trkpt>
      <trkpt lat="48.86047" lon="2.32686">
        <ele>21.60000038147</ele>
        <time>2015-09-28T19:34:38Z</time>
      </trkpt>
      <trkpt lat="48.86057" lon="2.32657">
        <ele>21.200000762939</ele>
        <time>2015-09-28T19:34:42Z</time>
      </trkpt>
      <trkpt lat="48.86065" lon="2.3263">
        <ele>20.200000762939</ele>
        <time>2015-09-28T19:34:46Z</time>
      </trkpt>
      <trkpt lat="48.86073" lon="2.32605">
        <ele>20.200000762939</ele>
        <time>2015-09-28T19:34:50Z</time>
      </trkpt>
      <trkpt lat="48.86075" lon="2.32599">
        <ele>20</ele>
        <time>2015-09-28T19:34:51Z</time>
      </trkpt>
      <trkpt lat="48.86084" lon="2.32571">
        <ele>19.200000762939</ele>
        <time>2015-09-28T19:34:56Z</time>
      </trkpt>
      <trkpt lat="48.86093" lon="2.32545">
        <ele>18.200000762939</ele>
        <time>2015-09-28T19:35:01Z</time>
      </trkpt>
      <trkpt lat="48.86094" lon="2.3254">
        <ele>18.200000762939</ele>
        <time>2015-09-28T19:35:02Z</time>
      </trkpt>
      <trkpt lat="48.86102" lon="2.32514">
        <ele>18.200000762939</ele>
        <time>2015-09-28T19:35:07Z</time>
      </trkpt>
      <trkpt lat="48.86111" lon="2.32487">
        <ele>20.39999961853</ele>
        <time>2015-09-28T19:35:12Z</time>
      </trkpt>
      <trkpt lat="48.86117" lon="2.32458">
        <ele>21.799999237061</ele>
        <time>2015-09-28T19:35:17Z</time>
      </trkpt>
      <trkpt lat="48.86124" lon="2.3243">
        <ele>23</ele>
        <time>2015-09-28T19:35:22Z</time>
      </trkpt>
      <trkpt lat="48.86132" lon="2.32404">
        <ele>25.39999961853</ele>
        <time>2015-09-28T19:35:27Z</time>
      </trkpt>
      <trkpt lat="48.8614" lon="2.32378">
        <ele>27.39999961853</ele>
        <time>2015-09-28T19:35:32Z</time>
      </trkpt>
      <trkpt lat="48.86149" lon="2.32351">
        <ele>29.799999237061</ele>
        <time>2015-09-28T19:35:37Z</time>
      </trkpt>
      <trkpt lat="48.86156" lon="2.32325">
        <ele>32.79999923706</ele>
        <time>2015-09-28T19:35:42Z</time>
      </trkpt>
      <trkpt lat="48.86164" lon="2.32296">
        <ele>33.400001525879</ele>
        <time>2015-09-28T19:35:47Z</time>
      </trkpt>
      <trkpt lat="48.8617" lon="2.3227">
        <ele>32.79999923706</ele>
        <time>2015-09-28T19:35:52Z</time>
      </trkpt>
      <trkpt lat="48.86178" lon="2.32243">
        <ele>30.60000038147</ele>
        <time>2015-09-28T19:35:57Z</time>
      </trkpt>
      <trkpt lat="48.86187" lon="2.32218">
        <ele>30.39999961853</ele>
        <time>2015-09-28T19:36:02Z</time>
      </trkpt>
      <trkpt lat="48.86197" lon="2.32193">
        <ele>31.200000762939</ele>
        <time>2015-09-28T19:36:08Z</time>
      </trkpt>
      <trkpt lat="48.86205" lon="2.32167">
        <ele>32.400001525879</ele>
        <time>2015-09-28T19:36:13Z</time>
      </trkpt>
      <trkpt lat="48.86214" lon="2.32136">
        <ele>29.200000762939</ele>
        <time>2015-09-28T19:36:18Z</time>
      </trkpt>
      <trkpt lat="48.86223" lon="2.32107">
        <ele>27.200000762939</ele>
        <time>2015-09-28T19:36:23Z</time>
      </trkpt>
      <trkpt lat="48.86231" lon="2.3208">
        <ele>26.39999961853</ele>
        <time>2015-09-28T19:36:28Z</time>
      </trkpt>
      <trkpt lat="48.86241" lon="2.32051">
        <ele>25.60000038147</ele>
        <time>2015-09-28T19:36:33Z</time>
      </trkpt>
      <trkpt lat="48.86251" lon="2.32023">
        <ele>26</ele>
        <time>2015-09-28T19:36:38Z</time>
      </trkpt>
      <trkpt lat="48.8626" lon="2.31993">
        <ele>25.200000762939</ele>
        <time>2015-09-28T19:36:43Z</time>
      </trkpt>
      <trkpt lat="48.86267" lon="2.31968">
        <ele>24.60000038147</ele>
        <time>2015-09-28T19:36:47Z</time>
      </trkpt>
      <trkpt lat="48.86276" lon="2.31941">
        <ele>24</ele>
        <time>2015-09-28T19:36:51Z</time>
      </trkpt>
      <trkpt lat="48.86285" lon="2.31914">
        <ele>23.60000038147</ele>
        <time>2015-09-28T19:36:55Z</time>
      </trkpt>
      <trkpt lat="48.86293" lon="2.31888">
        <ele>23.200000762939</ele>
        <time>2015-09-28T19:36:59Z</time>
      </trkpt>
      <trkpt lat="48.86299" lon="2.3186">
        <ele>22.200000762939</ele>
        <time>2015-09-28T19:37:04Z</time>
      </trkpt>
      <trkpt lat="48.86301" lon="2.31856">
        <ele>22.39999961853</ele>
        <time>2015-09-28T19:37:05Z</time>
      </trkpt>
      <trkpt lat="48.86306" lon="2.31843">
        <ele>22</ele>
        <time>2015-09-28T19:37:08Z</time>
      </trkpt>
      <trkpt lat="48.86315" lon="2.31816">
        <ele>22.60000038147</ele>
        <time>2015-09-28T19:37:14Z</time>
      </trkpt>
      <trkpt lat="48.8632" lon="2.31789">
        <ele>23.200000762939</ele>
        <time>2015-09-28T19:37:19Z</time>
      </trkpt>
      <trkpt lat="48.86321" lon="2.31783">
        <ele>23.39999961853</ele>
        <time>2015-09-28T19:37:20Z</time>
      </trkpt>
      <trkpt lat="48.86322" lon="2.31767">
        <ele>25.39999961853</ele>
        <time>2015-09-28T19:37:23Z</time>
      </trkpt>
      <trkpt lat="48.86321" lon="2.3174">
        <ele>27.39999961853</ele>
        <time>2015-09-28T19:37:28Z</time>
      </trkpt>
      <trkpt lat="48.8632" lon="2.31712">
        <ele>31</ele>
        <time>2015-09-28T19:37:33Z</time>
      </trkpt>
      <trkpt lat="48.86319" lon="2.31682">
        <ele>32.599998474121</ele>
        <time>2015-09-28T19:37:38Z</time>
      </trkpt>
      <trkpt lat="48.86317" lon="2.31651">
        <ele>33.79999923706</ele>
        <time>2015-09-28T19:37:43Z</time>
      </trkpt>
      <trkpt lat="48.86316" lon="2.3162">
        <ele>34.599998474121</ele>
        <time>2015-09-28T19:37:48Z</time>
      </trkpt>
      <trkpt lat="48.86314" lon="2.3159">
        <ele>35.599998474121</ele>
        <time>2015-09-28T19:37:53Z</time>
      </trkpt>
      <trkpt lat="48.86313" lon="2.31559">
        <ele>35.79999923706</ele>
        <time>2015-09-28T19:37:58Z</time>
      </trkpt>
      <trkpt lat="48.86313" lon="2.31527">
        <ele>36.400001525879</ele>
        <time>2015-09-28T19:38:03Z</time>
      </trkpt>
      <trkpt lat="48.86311" lon="2.31498">
        <ele>37</ele>
        <time>2015-09-28T19:38:08Z</time>
      </trkpt>
      <trkpt lat="48.8631" lon="2.31465">
        <ele>36.79999923706</ele>
        <time>2015-09-28T19:38:13Z</time>
      </trkpt>
      <trkpt lat="48.86309" lon="2.31432">
        <ele>36.400001525879</ele>
        <time>2015-09-28T19:38:18Z</time>
      </trkpt>
      <trkpt lat="48.86308" lon="2.31401">
        <ele>36</ele>
        <time>2015-09-28T19:38:23Z</time>
      </trkpt>
      <trkpt lat="48.8631" lon="2.31369">
        <ele>36.20000076294</ele>
        <time>2015-09-28T19:38:29Z</time>
      </trkpt>
      <trkpt lat="48.86305" lon="2.31338">
        <ele>36</ele>
        <time>2015-09-28T19:38:34Z</time>
      </trkpt>
      <trkpt lat="48.86303" lon="2.3131">
        <ele>36.599998474121</ele>
        <time>2015-09-28T19:38:38Z</time>
      </trkpt>
      <trkpt lat="48.86304" lon="2.31275">
        <ele>36.79999923706</ele>
        <time>2015-09-28T19:38:42Z</time>
      </trkpt>
      <trkpt lat="48.86305" lon="2.3124">
        <ele>37</ele>
        <time>2015-09-28T19:38:46Z</time>
      </trkpt>
      <trkpt lat="48.86303" lon="2.31212">
        <ele>36.20000076294</ele>
        <time>2015-09-28T19:38:50Z</time>
      </trkpt>
      <trkpt lat="48.86303" lon="2.31183">
        <ele>36</ele>
        <time>2015-09-28T19:38:54Z</time>
      </trkpt>
      <trkpt lat="48.86302" lon="2.31155">
        <ele>36</ele>
        <time>2015-09-28T19:38:58Z</time>
      </trkpt>
      <trkpt lat="48.86301" lon="2.31125">
        <ele>36</ele>
        <time>2015-09-28T19:39:02Z</time>
      </trkpt>
      <trkpt lat="48.86302" lon="2.3111">
        <ele>35.599998474121</ele>
        <time>2015-09-28T19:39:04Z</time>
      </trkpt>
      <trkpt lat="48.863" lon="2.3108">
        <ele>36</ele>
        <time>2015-09-28T19:39:08Z</time>
      </trkpt>
      <trkpt lat="48.86298" lon="2.31054">
        <ele>37</ele>
        <time>2015-09-28T19:39:12Z</time>
      </trkpt>
      <trkpt lat="48.86297" lon="2.31025">
        <ele>37.599998474121</ele>
        <time>2015-09-28T19:39:16Z</time>
      </trkpt>
      <trkpt lat="48.86296" lon="2.31004">
        <ele>38.20000076294</ele>
        <time>2015-09-28T19:39:19Z</time>
      </trkpt>
      <trkpt lat="48.86295" lon="2.30977">
        <ele>38.599998474121</ele>
        <time>2015-09-28T19:39:23Z</time>
      </trkpt>
      <trkpt lat="48.86295" lon="2.30957">
        <ele>39.599998474121</ele>
        <time>2015-09-28T19:39:26Z</time>
      </trkpt>
      <trkpt lat="48.86295" lon="2.30937">
        <ele>39.599998474121</ele>
        <time>2015-09-28T19:39:29Z</time>
      </trkpt>
      <trkpt lat="48.86295" lon="2.30922">
        <ele>39.20000076294</ele>
        <time>2015-09-28T19:39:31Z</time>
      </trkpt>
      <trkpt lat="48.86294" lon="2.30889">
        <ele>39.599998474121</ele>
        <time>2015-09-28T19:39:36Z</time>
      </trkpt>
      <trkpt lat="48.86293" lon="2.30857">
        <ele>39.79999923706</ele>
        <time>2015-09-28T19:39:41Z</time>
      </trkpt>
      <trkpt lat="48.86293" lon="2.30835">
        <ele>39.400001525879</ele>
        <time>2015-09-28T19:39:44Z</time>
      </trkpt>
      <trkpt lat="48.86291" lon="2.308">
        <ele>38.400001525879</ele>
        <time>2015-09-28T19:39:49Z</time>
      </trkpt>
      <trkpt lat="48.86289" lon="2.30772">
        <ele>37.599998474121</ele>
        <time>2015-09-28T19:39:53Z</time>
      </trkpt>
      <trkpt lat="48.86287" lon="2.3074">
        <ele>36</ele>
        <time>2015-09-28T19:39:57Z</time>
      </trkpt>
      <trkpt lat="48.86287" lon="2.3073">
        <ele>35.20000076294</ele>
        <time>2015-09-28T19:39:58Z</time>
      </trkpt>
      <trkpt lat="48.86286" lon="2.30699">
        <ele>34.79999923706</ele>
        <time>2015-09-28T19:40:02Z</time>
      </trkpt>
      <trkpt lat="48.86285" lon="2.30669">
        <ele>35</ele>
        <time>2015-09-28T19:40:06Z</time>
      </trkpt>
      <trkpt lat="48.86284" lon="2.30637">
        <ele>34.599998474121</ele>
        <time>2015-09-28T19:40:10Z</time>
      </trkpt>
      <trkpt lat="48.86284" lon="2.30607">
        <ele>33.79999923706</ele>
        <time>2015-09-28T19:40:14Z</time>
      </trkpt>
      <trkpt lat="48.86284" lon="2.30579">
        <ele>33.400001525879</ele>
        <time>2015-09-28T19:40:18Z</time>
      </trkpt>
      <trkpt lat="48.86281" lon="2.30548">
        <ele>32.79999923706</ele>
        <time>2015-09-28T19:40:23Z</time>
      </trkpt>
      <trkpt lat="48.86281" lon="2.30519">
        <ele>32.20000076294</ele>
        <time>2015-09-28T19:40:27Z</time>
      </trkpt>
      <trkpt lat="48.8628" lon="2.30486">
        <ele>32.79999923706</ele>
        <time>2015-09-28T19:40:32Z</time>
      </trkpt>
      <trkpt lat="48.86279" lon="2.30455">
        <ele>33.599998474121</ele>
        <time>2015-09-28T19:40:38Z</time>
      </trkpt>
      <trkpt lat="48.86278" lon="2.3044">
        <ele>33.79999923706</ele>
        <time>2015-09-28T19:40:41Z</time>
      </trkpt>
      <trkpt lat="48.86277" lon="2.3041">
        <ele>34</ele>
        <time>2015-09-28T19:40:48Z</time>
      </trkpt>
      <trkpt lat="48.86277" lon="2.30404">
        <ele>33.79999923706</ele>
        <time>2015-09-28T19:40:50Z</time>
      </trkpt>
      <trkpt lat="48.86276" lon="2.3039">
        <ele>32.79999923706</ele>
        <time>2015-09-28T19:40:57Z</time>
      </trkpt>
      <trkpt lat="48.86275" lon="2.30377">
        <ele>32.599998474121</ele>
        <time>2015-09-28T19:41:06Z</time>
      </trkpt>
      <trkpt lat="48.86277" lon="2.30369">
        <ele>29</ele>
        <time>2015-09-28T19:42:47Z</time>
      </trkpt>
      <trkpt lat="48.8627" lon="2.30372">
        <ele>29.799999237061</ele>
        <time>2015-09-28T19:43:17Z</time>
      </trkpt>
      <trkpt lat="48.86262" lon="2.30353">
        <ele>30</ele>
        <time>2015-09-28T19:43:52Z</time>
      </trkpt>
      <trkpt lat="48.86251" lon="2.30329">
        <ele>30.200000762939</ele>
        <time>2015-09-28T19:44:03Z</time>
      </trkpt>
      <trkpt lat="48.86237" lon="2.3031">
        <ele>28.39999961853</ele>
        <time>2015-09-28T19:44:12Z</time>
      </trkpt>
      <trkpt lat="48.86221" lon="2.30293">
        <ele>28.60000038147</ele>
        <time>2015-09-28T19:44:22Z</time>
      </trkpt>
      <trkpt lat="48.86208" lon="2.30278">
        <ele>28.39999961853</ele>
        <time>2015-09-28T19:44:29Z</time>
      </trkpt>
      <trkpt lat="48.86213" lon="2.3025">
        <ele>28.39999961853</ele>
        <time>2015-09-28T19:44:36Z</time>
      </trkpt>
      <trkpt lat="48.86215" lon="2.30236">
        <ele>26.799999237061</ele>
        <time>2015-09-28T19:44:40Z</time>
      </trkpt>
      <trkpt lat="48.86211" lon="2.30207">
        <ele>26.60000038147</ele>
        <time>2015-09-28T19:44:50Z</time>
      </trkpt>
      <trkpt lat="48.86213" lon="2.30177">
        <ele>26.200000762939</ele>
        <time>2015-09-28T19:44:58Z</time>
      </trkpt>
      <trkpt lat="48.86214" lon="2.30155">
        <ele>25.200000762939</ele>
        <time>2015-09-28T19:45:07Z</time>
      </trkpt>
      <trkpt lat="48.86217" lon="2.30126">
        <ele>25.200000762939</ele>
        <time>2015-09-28T19:45:15Z</time>
      </trkpt>
      <trkpt lat="48.86219" lon="2.30096">
        <ele>24.799999237061</ele>
        <time>2015-09-28T19:45:21Z</time>
      </trkpt>
      <trkpt lat="48.86217" lon="2.30067">
        <ele>25.60000038147</ele>
        <time>2015-09-28T19:45:27Z</time>
      </trkpt>
      <trkpt lat="48.86217" lon="2.30039">
        <ele>24.39999961853</ele>
        <time>2015-09-28T19:45:31Z</time>
      </trkpt>
      <trkpt lat="48.8621" lon="2.30011">
        <ele>23.39999961853</ele>
        <time>2015-09-28T19:45:37Z</time>
      </trkpt>
      <trkpt lat="48.86206" lon="2.2998">
        <ele>22.60000038147</ele>
        <time>2015-09-28T19:45:44Z</time>
      </trkpt>
      <trkpt lat="48.862" lon="2.29954">
        <ele>22.200000762939</ele>
        <time>2015-09-28T19:45:50Z</time>
      </trkpt>
      <trkpt lat="48.86199" lon="2.29925">
        <ele>21.60000038147</ele>
        <time>2015-09-28T19:45:58Z</time>
      </trkpt>
      <trkpt lat="48.86197" lon="2.29912">
        <ele>21.39999961853</ele>
        <time>2015-09-28T19:46:03Z</time>
      </trkpt>
      <trkpt lat="48.86193" lon="2.29909">
        <ele>21.39999961853</ele>
        <time>2015-09-28T19:46:08Z</time>
      </trkpt>
      <trkpt lat="48.86196" lon="2.29907">
        <ele>21.39999961853</ele>
        <time>2015-09-28T19:46:13Z</time>
      </trkpt>
      <trkpt lat="48.86201" lon="2.29903">
        <ele>20.200000762939</ele>
        <time>2015-09-28T19:46:22Z</time>
      </trkpt>
      <trkpt lat="48.86218" lon="2.299">
        <ele>19.60000038147</ele>
        <time>2015-09-28T19:46:42Z</time>
      </trkpt>
      <trkpt lat="48.86231" lon="2.29919">
        <ele>19.799999237061</ele>
        <time>2015-09-28T19:46:54Z</time>
      </trkpt>
      <trkpt lat="48.86235" lon="2.29923">
        <ele>20.39999961853</ele>
        <time>2015-09-28T19:47:00Z</time>
      </trkpt>
      <trkpt lat="48.86242" lon="2.29923">
        <ele>24</ele>
        <time>2015-09-28T19:48:40Z</time>
      </trkpt>
      <trkpt lat="48.86246" lon="2.29925">
        <ele>27.39999961853</ele>
        <time>2015-09-28T19:50:55Z</time>
      </trkpt>
      <trkpt lat="48.86248" lon="2.29916">
        <ele>27.200000762939</ele>
        <time>2015-09-28T19:51:31Z</time>
      </trkpt>
      <trkpt lat="48.86243" lon="2.29891">
        <ele>26.39999961853</ele>
        <time>2015-09-28T19:51:48Z</time>
      </trkpt>
      <trkpt lat="48.86238" lon="2.29864">
        <ele>26</ele>
        <time>2015-09-28T19:52:08Z</time>
      </trkpt>
      <trkpt lat="48.8623" lon="2.29839">
        <ele>26</ele>
        <time>2015-09-28T19:52:22Z</time>
      </trkpt>
      <trkpt lat="48.86228" lon="2.29836">
        <ele>26</ele>
        <time>2015-09-28T19:52:24Z</time>
      </trkpt>
      <trkpt lat="48.86221" lon="2.29812">
        <ele>26</ele>
        <time>2015-09-28T19:52:47Z</time>
      </trkpt>
      <trkpt lat="48.86227" lon="2.29832">
        <ele>26.60000038147</ele>
        <time>2015-09-28T19:53:33Z</time>
      </trkpt>
      <trkpt lat="48.86232" lon="2.29859">
        <ele>26.39999961853</ele>
        <time>2015-09-28T19:53:46Z</time>
      </trkpt>
      <trkpt lat="48.86239" lon="2.29884">
        <ele>26</ele>
        <time>2015-09-28T19:54:01Z</time>
      </trkpt>
      <trkpt lat="48.86245" lon="2.2991">
        <ele>25.60000038147</ele>
        <time>2015-09-28T19:54:15Z</time>
      </trkpt>
      <trkpt lat="48.86247" lon="2.29923">
        <ele>25.200000762939</ele>
        <time>2015-09-28T19:54:22Z</time>
      </trkpt>
      <trkpt lat="48.8623" lon="2.29912">
        <ele>24.39999961853</ele>
        <time>2015-09-28T19:54:33Z</time>
      </trkpt>
      <trkpt lat="48.86219" lon="2.29887">
        <ele>24</ele>
        <time>2015-09-28T19:54:39Z</time>
      </trkpt>
      <trkpt lat="48.86208" lon="2.29865">
        <ele>24.200000762939</ele>
        <time>2015-09-28T19:54:47Z</time>
      </trkpt>
      <trkpt lat="48.86199" lon="2.29837">
        <ele>23.799999237061</ele>
        <time>2015-09-28T19:54:55Z</time>
      </trkpt>
      <trkpt lat="48.86189" lon="2.29814">
        <ele>26.60000038147</ele>
        <time>2015-09-28T19:55:01Z</time>
      </trkpt>
      <trkpt lat="48.8618" lon="2.29786">
        <ele>28.39999961853</ele>
        <time>2015-09-28T19:55:07Z</time>
      </trkpt>
      <trkpt lat="48.86166" lon="2.29763">
        <ele>29.60000038147</ele>
        <time>2015-09-28T19:55:14Z</time>
      </trkpt>
      <trkpt lat="48.86156" lon="2.29736">
        <ele>30.200000762939</ele>
        <time>2015-09-28T19:55:19Z</time>
      </trkpt>
      <trkpt lat="48.86146" lon="2.29714">
        <ele>31.200000762939</ele>
        <time>2015-09-28T19:55:24Z</time>
      </trkpt>
      <trkpt lat="48.86132" lon="2.29691">
        <ele>32.79999923706</ele>
        <time>2015-09-28T19:55:30Z</time>
      </trkpt>
      <trkpt lat="48.86117" lon="2.29668">
        <ele>34</ele>
        <time>2015-09-28T19:55:35Z</time>
      </trkpt>
      <trkpt lat="48.86101" lon="2.29648">
        <ele>35.599998474121</ele>
        <time>2015-09-28T19:55:40Z</time>
      </trkpt>
      <trkpt lat="48.86086" lon="2.29632">
        <ele>36.599998474121</ele>
        <time>2015-09-28T19:55:45Z</time>
      </trkpt>
      <trkpt lat="48.8607" lon="2.29614">
        <ele>36.20000076294</ele>
        <time>2015-09-28T19:55:51Z</time>
      </trkpt>
      <trkpt lat="48.86056" lon="2.29597">
        <ele>38.599998474121</ele>
        <time>2015-09-28T19:55:58Z</time>
      </trkpt>
      <trkpt lat="48.86053" lon="2.29581">
        <ele>41.400001525879</ele>
        <time>2015-09-28T19:56:05Z</time>
      </trkpt>
      <trkpt lat="48.86053" lon="2.29577">
        <ele>41.20000076294</ele>
        <time>2015-09-28T19:56:10Z</time>
      </trkpt>
      <trkpt lat="48.86057" lon="2.29544">
        <ele>37.599998474121</ele>
        <time>2015-09-28T19:56:38Z</time>
      </trkpt>
      <trkpt lat="48.86058" lon="2.29542">
        <ele>37.599998474121</ele>
        <time>2015-09-28T19:56:41Z</time>
      </trkpt>
      <trkpt lat="48.86052" lon="2.29531">
        <ele>36.400001525879</ele>
        <time>2015-09-28T19:57:17Z</time>
      </trkpt>
      <trkpt lat="48.86036" lon="2.29519">
        <ele>36.79999923706</ele>
        <time>2015-09-28T19:57:26Z</time>
      </trkpt>
      <trkpt lat="48.86033" lon="2.29517">
        <ele>36.79999923706</ele>
        <time>2015-09-28T19:57:28Z</time>
      </trkpt>
      <trkpt lat="48.86018" lon="2.29497">
        <ele>36</ele>
        <time>2015-09-28T19:57:46Z</time>
      </trkpt>
      <trkpt lat="48.86005" lon="2.29476">
        <ele>35.79999923706</ele>
        <time>2015-09-28T19:57:54Z</time>
      </trkpt>
      <trkpt lat="48.85992" lon="2.29455">
        <ele>35.599998474121</ele>
        <time>2015-09-28T19:58:01Z</time>
      </trkpt>
      <trkpt lat="48.85976" lon="2.29435">
        <ele>34.599998474121</ele>
        <time>2015-09-28T19:58:08Z</time>
      </trkpt>
      <trkpt lat="48.85961" lon="2.29418">
        <ele>34</ele>
        <time>2015-09-28T19:58:14Z</time>
      </trkpt>
      <trkpt lat="48.85948" lon="2.29399">
        <ele>32.20000076294</ele>
        <time>2015-09-28T19:58:19Z</time>
      </trkpt>
      <trkpt lat="48.85934" lon="2.2938">
        <ele>31.39999961853</ele>
        <time>2015-09-28T19:58:25Z</time>
      </trkpt>
      <trkpt lat="48.85924" lon="2.29371">
        <ele>31.200000762939</ele>
        <time>2015-09-28T19:58:31Z</time>
      </trkpt>
      <trkpt lat="48.85922" lon="2.2935">
        <ele>28</ele>
        <time>2015-09-28T19:59:32Z</time>
      </trkpt>
      <trkpt lat="48.85926" lon="2.29333">
        <ele>28.200000762939</ele>
        <time>2015-09-28T19:59:39Z</time>
      </trkpt>
      <trkpt lat="48.8593" lon="2.29317">
        <ele>28.39999961853</ele>
        <time>2015-09-28T19:59:47Z</time>
      </trkpt>
      <trkpt lat="48.85942" lon="2.29292">
        <ele>28.799999237061</ele>
        <time>2015-09-28T19:59:59Z</time>
      </trkpt>
      <trkpt lat="48.85955" lon="2.29272">
        <ele>29.60000038147</ele>
        <time>2015-09-28T20:00:08Z</time>
      </trkpt>
      <trkpt lat="48.85963" lon="2.29257">
        <ele>30.39999961853</ele>
        <time>2015-09-28T20:00:15Z</time>
      </trkpt>
      <trkpt lat="48.85971" lon="2.29249">
        <ele>31.39999961853</ele>
        <time>2015-09-28T20:00:20Z</time>
      </trkpt>
      <trkpt lat="48.85977" lon="2.29233">
        <ele>30.799999237061</ele>
        <time>2015-09-28T20:01:02Z</time>
      </trkpt>
      <trkpt lat="48.85978" lon="2.2923">
        <ele>30.799999237061</ele>
        <time>2015-09-28T20:01:03Z</time>
      </trkpt>
      <trkpt lat="48.85991" lon="2.29213">
        <ele>30.60000038147</ele>
        <time>2015-09-28T20:01:10Z</time>
      </trkpt>
      <trkpt lat="48.86005" lon="2.29192">
        <ele>30.799999237061</ele>
        <time>2015-09-28T20:01:17Z</time>
      </trkpt>
      <trkpt lat="48.86019" lon="2.29171">
        <ele>31.200000762939</ele>
        <time>2015-09-28T20:01:26Z</time>
      </trkpt>
      <trkpt lat="48.86032" lon="2.29153">
        <ele>30.799999237061</ele>
        <time>2015-09-28T20:01:35Z</time>
      </trkpt>
      <trkpt lat="48.86041" lon="2.29144">
        <ele>27</ele>
        <time>2015-09-28T20:02:46Z</time>
      </trkpt>
      <trkpt lat="48.86051" lon="2.29146">
        <ele>28.60000038147</ele>
        <time>2015-09-28T20:04:31Z</time>
      </trkpt>
      <trkpt lat="48.86064" lon="2.29167">
        <ele>28.200000762939</ele>
        <time>2015-09-28T20:04:46Z</time>
      </trkpt>
      <trkpt lat="48.86078" lon="2.29185">
        <ele>28</ele>
        <time>2015-09-28T20:04:56Z</time>
      </trkpt>
      <trkpt lat="48.86092" lon="2.29206">
        <ele>27.60000038147</ele>
        <time>2015-09-28T20:05:06Z</time>
      </trkpt>
      <trkpt lat="48.86104" lon="2.29228">
        <ele>26.60000038147</ele>
        <time>2015-09-28T20:05:13Z</time>
      </trkpt>
      <trkpt lat="48.86118" lon="2.29245">
        <ele>26</ele>
        <time>2015-09-28T20:05:19Z</time>
      </trkpt>
      <trkpt lat="48.86133" lon="2.29265">
        <ele>24.799999237061</ele>
        <time>2015-09-28T20:05:25Z</time>
      </trkpt>
      <trkpt lat="48.86148" lon="2.29284">
        <ele>21.60000038147</ele>
        <time>2015-09-28T20:05:32Z</time>
      </trkpt>
      <trkpt lat="48.86165" lon="2.29301">
        <ele>21.60000038147</ele>
        <time>2015-09-28T20:05:37Z</time>
      </trkpt>
      <trkpt lat="48.8618" lon="2.29316">
        <ele>21.60000038147</ele>
        <time>2015-09-28T20:05:42Z</time>
      </trkpt>
      <trkpt lat="48.86194" lon="2.29336">
        <ele>21.200000762939</ele>
        <time>2015-09-28T20:05:48Z</time>
      </trkpt>
      <trkpt lat="48.8621" lon="2.29356">
        <ele>18.799999237061</ele>
        <time>2015-09-28T20:05:54Z</time>
      </trkpt>
      <trkpt lat="48.86221" lon="2.29377">
        <ele>16.200000762939</ele>
        <time>2015-09-28T20:05:59Z</time>
      </trkpt>
      <trkpt lat="48.86235" lon="2.29401">
        <ele>14.800000190735</ele>
        <time>2015-09-28T20:06:04Z</time>
      </trkpt>
      <trkpt lat="48.86248" lon="2.29424">
        <ele>13.199999809265</ele>
        <time>2015-09-28T20:06:09Z</time>
      </trkpt>
      <trkpt lat="48.86258" lon="2.29449">
        <ele>11.60000038147</ele>
        <time>2015-09-28T20:06:15Z</time>
      </trkpt>
      <trkpt lat="48.86268" lon="2.29472">
        <ele>10.39999961853</ele>
        <time>2015-09-28T20:06:21Z</time>
      </trkpt>
      <trkpt lat="48.86276" lon="2.295">
        <ele>8.6000003814697</ele>
        <time>2015-09-28T20:06:28Z</time>
      </trkpt>
      <trkpt lat="48.86283" lon="2.29528">
        <ele>8.6000003814697</ele>
        <time>2015-09-28T20:06:35Z</time>
      </trkpt>
      <trkpt lat="48.86289" lon="2.29555">
        <ele>9.1999998092651</ele>
        <time>2015-09-28T20:06:41Z</time>
      </trkpt>
      <trkpt lat="48.863" lon="2.29581">
        <ele>8.3999996185303</ele>
        <time>2015-09-28T20:06:48Z</time>
      </trkpt>
      <trkpt lat="48.8631" lon="2.29606">
        <ele>8.8000001907349</ele>
        <time>2015-09-28T20:06:55Z</time>
      </trkpt>
      <trkpt lat="48.86315" lon="2.29614">
        <ele>12</ele>
        <time>2015-09-28T20:06:59Z</time>
      </trkpt>
      <trkpt lat="48.86324" lon="2.29605">
        <ele>24.200000762939</ele>
        <time>2015-09-28T20:07:53Z</time>
      </trkpt>
      <trkpt lat="48.86329" lon="2.29603">
        <ele>24.39999961853</ele>
        <time>2015-09-28T20:07:56Z</time>
      </trkpt>
      <trkpt lat="48.86332" lon="2.29603">
        <ele>24.60000038147</ele>
        <time>2015-09-28T20:07:59Z</time>
      </trkpt>
      <trkpt lat="48.86333" lon="2.29627">
        <ele>25.200000762939</ele>
        <time>2015-09-28T20:08:07Z</time>
      </trkpt>
      <trkpt lat="48.86345" lon="2.2963">
        <ele>25.39999961853</ele>
        <time>2015-09-28T20:08:13Z</time>
      </trkpt>
      <trkpt lat="48.86363" lon="2.29617">
        <ele>28.39999961853</ele>
        <time>2015-09-28T20:08:21Z</time>
      </trkpt>
      <trkpt lat="48.86383" lon="2.29609">
        <ele>34</ele>
        <time>2015-09-28T20:08:31Z</time>
      </trkpt>
      <trkpt lat="48.86402" lon="2.29603">
        <ele>37.20000076294</ele>
        <time>2015-09-28T20:08:38Z</time>
      </trkpt>
      <trkpt lat="48.86418" lon="2.29589">
        <ele>41.599998474121</ele>
        <time>2015-09-28T20:08:47Z</time>
      </trkpt>
      <trkpt lat="48.8643" lon="2.29577">
        <ele>50.20000076294</ele>
        <time>2015-09-28T20:09:01Z</time>
      </trkpt>
      <trkpt lat="48.86446" lon="2.29581">
        <ele>52.20000076294</ele>
        <time>2015-09-28T20:09:23Z</time>
      </trkpt>
      <trkpt lat="48.86452" lon="2.29579">
        <ele>50.599998474121</ele>
        <time>2015-09-28T20:09:32Z</time>
      </trkpt>
      <trkpt lat="48.86467" lon="2.2956">
        <ele>50.400001525879</ele>
        <time>2015-09-28T20:09:40Z</time>
      </trkpt>
      <trkpt lat="48.86472" lon="2.2955">
        <ele>50.599998474121</ele>
        <time>2015-09-28T20:09:45Z</time>
      </trkpt>
      <trkpt lat="48.86473" lon="2.29549">
        <ele>50.400001525879</ele>
        <time>2015-09-28T20:09:47Z</time>
      </trkpt>
      <trkpt lat="48.86483" lon="2.29555">
        <ele>47.79999923706</ele>
        <time>2015-09-28T20:09:57Z</time>
      </trkpt>
      <trkpt lat="48.86483" lon="2.29555">
        <ele>47.599998474121</ele>
        <time>2015-09-28T20:09:59Z</time>
      </trkpt>
      <trkpt lat="48.86493" lon="2.29542">
        <ele>44.20000076294</ele>
        <time>2015-09-28T20:10:40Z</time>
      </trkpt>
      <trkpt lat="48.86499" lon="2.29515">
        <ele>44.599998474121</ele>
        <time>2015-09-28T20:10:48Z</time>
      </trkpt>
      <trkpt lat="48.86505" lon="2.29485">
        <ele>45</ele>
        <time>2015-09-28T20:10:57Z</time>
      </trkpt>
      <trkpt lat="48.86502" lon="2.29458">
        <ele>45.599998474121</ele>
        <time>2015-09-28T20:11:05Z</time>
      </trkpt>
      <trkpt lat="48.86489" lon="2.29433">
        <ele>44.79999923706</ele>
        <time>2015-09-28T20:11:16Z</time>
      </trkpt>
      <trkpt lat="48.86489" lon="2.29431">
        <ele>44.79999923706</ele>
        <time>2015-09-28T20:11:18Z</time>
      </trkpt>
      <trkpt lat="48.86484" lon="2.29423">
        <ele>43.599998474121</ele>
        <time>2015-09-28T20:11:38Z</time>
      </trkpt>
      <trkpt lat="48.86474" lon="2.29408">
        <ele>43</ele>
        <time>2015-09-28T20:12:16Z</time>
      </trkpt>
      <trkpt lat="48.86482" lon="2.29385">
        <ele>43.400001525879</ele>
        <time>2015-09-28T20:12:24Z</time>
      </trkpt>
      <trkpt lat="48.86482" lon="2.29355">
        <ele>43.20000076294</ele>
        <time>2015-09-28T20:12:31Z</time>
      </trkpt>
      <trkpt lat="48.86485" lon="2.29326">
        <ele>42.20000076294</ele>
        <time>2015-09-28T20:12:39Z</time>
      </trkpt>
      <trkpt lat="48.86485" lon="2.29298">
        <ele>42.20000076294</ele>
        <time>2015-09-28T20:12:47Z</time>
      </trkpt>
      <trkpt lat="48.86487" lon="2.2927">
        <ele>41.599998474121</ele>
        <time>2015-09-28T20:12:54Z</time>
      </trkpt>
      <trkpt lat="48.86489" lon="2.2924">
        <ele>40.400001525879</ele>
        <time>2015-09-28T20:13:01Z</time>
      </trkpt>
      <trkpt lat="48.86495" lon="2.2921">
        <ele>40.400001525879</ele>
        <time>2015-09-28T20:13:08Z</time>
      </trkpt>
      <trkpt lat="48.86491" lon="2.29176">
        <ele>44</ele>
        <time>2015-09-28T20:13:18Z</time>
      </trkpt>
      <trkpt lat="48.86491" lon="2.29171">
        <ele>46</ele>
        <time>2015-09-28T20:13:19Z</time>
      </trkpt>
      <trkpt lat="48.86497" lon="2.29165">
        <ele>49.20000076294</ele>
        <time>2015-09-28T20:13:27Z</time>
      </trkpt>
      <trkpt lat="48.86497" lon="2.29176">
        <ele>52.79999923706</ele>
        <time>2015-09-28T20:13:37Z</time>
      </trkpt>
      <trkpt lat="48.86513" lon="2.29195">
        <ele>53.79999923706</ele>
        <time>2015-09-28T20:13:49Z</time>
      </trkpt>
      <trkpt lat="48.86526" lon="2.29218">
        <ele>55</ele>
        <time>2015-09-28T20:13:57Z</time>
      </trkpt>
      <trkpt lat="48.86543" lon="2.29235">
        <ele>53.400001525879</ele>
        <time>2015-09-28T20:14:04Z</time>
      </trkpt>
      <trkpt lat="48.86559" lon="2.29253">
        <ele>54.400001525879</ele>
        <time>2015-09-28T20:14:10Z</time>
      </trkpt>
      <trkpt lat="48.86562" lon="2.29253">
        <ele>53.79999923706</ele>
        <time>2015-09-28T20:14:12Z</time>
      </trkpt>
      <trkpt lat="48.86579" lon="2.29238">
        <ele>54.20000076294</ele>
        <time>2015-09-28T20:14:31Z</time>
      </trkpt>
      <trkpt lat="48.86591" lon="2.29214">
        <ele>54.20000076294</ele>
        <time>2015-09-28T20:14:38Z</time>
      </trkpt>
      <trkpt lat="48.86603" lon="2.29188">
        <ele>53.20000076294</ele>
        <time>2015-09-28T20:14:44Z</time>
      </trkpt>
      <trkpt lat="48.86613" lon="2.29162">
        <ele>52.599998474121</ele>
        <time>2015-09-28T20:14:52Z</time>
      </trkpt>
      <trkpt lat="48.86624" lon="2.29137">
        <ele>51</ele>
        <time>2015-09-28T20:15:00Z</time>
      </trkpt>
      <trkpt lat="48.86627" lon="2.2913">
        <ele>50.400001525879</ele>
        <time>2015-09-28T20:15:03Z</time>
      </trkpt>
      <trkpt lat="48.86631" lon="2.29124">
        <ele>49.599998474121</ele>
        <time>2015-09-28T20:15:06Z</time>
      </trkpt>
      <trkpt lat="48.86635" lon="2.29114">
        <ele>48.20000076294</ele>
        <time>2015-09-28T20:15:11Z</time>
      </trkpt>
      <trkpt lat="48.86644" lon="2.29093">
        <ele>45.400001525879</ele>
        <time>2015-09-28T20:15:21Z</time>
      </trkpt>
      <trkpt lat="48.86658" lon="2.29077">
        <ele>43.20000076294</ele>
        <time>2015-09-28T20:15:30Z</time>
      </trkpt>
      <trkpt lat="48.8667" lon="2.29051">
        <ele>42.599998474121</ele>
        <time>2015-09-28T20:15:37Z</time>
      </trkpt>
      <trkpt lat="48.8668" lon="2.29025">
        <ele>43.599998474121</ele>
        <time>2015-09-28T20:15:45Z</time>
      </trkpt>
      <trkpt lat="48.8668" lon="2.29024">
        <ele>44</ele>
        <time>2015-09-28T20:15:46Z</time>
      </trkpt>
      <trkpt lat="48.86695" lon="2.29014">
        <ele>53.400001525879</ele>
        <time>2015-09-28T20:16:15Z</time>
      </trkpt>
      <trkpt lat="48.86709" lon="2.29031">
        <ele>54</ele>
        <time>2015-09-28T20:16:23Z</time>
      </trkpt>
      <trkpt lat="48.86731" lon="2.29041">
        <ele>57.400001525879</ele>
        <time>2015-09-28T20:16:30Z</time>
      </trkpt>
      <trkpt lat="48.8675" lon="2.29057">
        <ele>59</ele>
        <time>2015-09-28T20:16:36Z</time>
      </trkpt>
      <trkpt lat="48.8677" lon="2.29065">
        <ele>60.599998474121</ele>
        <time>2015-09-28T20:16:41Z</time>
      </trkpt>
      <trkpt lat="48.86792" lon="2.29069">
        <ele>62.599998474121</ele>
        <time>2015-09-28T20:16:47Z</time>
      </trkpt>
      <trkpt lat="48.86812" lon="2.29069">
        <ele>65.199996948242</ele>
        <time>2015-09-28T20:16:52Z</time>
      </trkpt>
      <trkpt lat="48.86829" lon="2.29082">
        <ele>68</ele>
        <time>2015-09-28T20:16:58Z</time>
      </trkpt>
      <trkpt lat="48.86847" lon="2.29087">
        <ele>71.199996948242</ele>
        <time>2015-09-28T20:17:04Z</time>
      </trkpt>
      <trkpt lat="48.86864" lon="2.29104">
        <ele>79</ele>
        <time>2015-09-28T20:17:09Z</time>
      </trkpt>
      <trkpt lat="48.8688" lon="2.29118">
        <ele>86.400001525879</ele>
        <time>2015-09-28T20:17:15Z</time>
      </trkpt>
      <trkpt lat="48.86896" lon="2.29133">
        <ele>92.800003051758</ele>
        <time>2015-09-28T20:17:21Z</time>
      </trkpt>
      <trkpt lat="48.86913" lon="2.29143">
        <ele>97.599998474121</ele>
        <time>2015-09-28T20:17:28Z</time>
      </trkpt>
      <trkpt lat="48.86932" lon="2.29153">
        <ele>101.59999847412</ele>
        <time>2015-09-28T20:17:35Z</time>
      </trkpt>
      <trkpt lat="48.86948" lon="2.29169">
        <ele>104.19999694824</ele>
        <time>2015-09-28T20:17:42Z</time>
      </trkpt>
      <trkpt lat="48.86963" lon="2.29193">
        <ele>106.80000305176</ele>
        <time>2015-09-28T20:17:47Z</time>
      </trkpt>
      <trkpt lat="48.86979" lon="2.29214">
        <ele>111.59999847412</ele>
        <time>2015-09-28T20:17:51Z</time>
      </trkpt>
      <trkpt lat="48.86996" lon="2.29235">
        <ele>114.19999694824</ele>
        <time>2015-09-28T20:17:56Z</time>
      </trkpt>
      <trkpt lat="48.87013" lon="2.29253">
        <ele>118</ele>
        <time>2015-09-28T20:18:01Z</time>
      </trkpt>
      <trkpt lat="48.87018" lon="2.2926">
        <ele>119.19999694824</ele>
        <time>2015-09-28T20:18:03Z</time>
      </trkpt>
      <trkpt lat="48.87035" lon="2.29277">
        <ele>124.19999694824</ele>
        <time>2015-09-28T20:18:08Z</time>
      </trkpt>
      <trkpt lat="48.87049" lon="2.29289">
        <ele>128.60000610352</ele>
        <time>2015-09-28T20:18:12Z</time>
      </trkpt>
      <trkpt lat="48.87059" lon="2.29299">
        <ele>131.19999694824</ele>
        <time>2015-09-28T20:18:15Z</time>
      </trkpt>
      <trkpt lat="48.87067" lon="2.29306">
        <ele>133</ele>
        <time>2015-09-28T20:18:17Z</time>
      </trkpt>
      <trkpt lat="48.87084" lon="2.29316">
        <ele>137.19999694824</ele>
        <time>2015-09-28T20:18:21Z</time>
      </trkpt>
      <trkpt lat="48.87103" lon="2.29327">
        <ele>145</ele>
        <time>2015-09-28T20:18:27Z</time>
      </trkpt>
      <trkpt lat="48.87121" lon="2.29341">
        <ele>151.60000610352</ele>
        <time>2015-09-28T20:18:32Z</time>
      </trkpt>
      <trkpt lat="48.87139" lon="2.29353">
        <ele>155.80000305176</ele>
        <time>2015-09-28T20:18:36Z</time>
      </trkpt>
      <trkpt lat="48.87158" lon="2.29363">
        <ele>158.39999389648</ele>
        <time>2015-09-28T20:18:40Z</time>
      </trkpt>
      <trkpt lat="48.87174" lon="2.29372">
        <ele>159.39999389648</ele>
        <time>2015-09-28T20:18:44Z</time>
      </trkpt>
      <trkpt lat="48.87193" lon="2.29382">
        <ele>162.39999389648</ele>
        <time>2015-09-28T20:18:49Z</time>
      </trkpt>
      <trkpt lat="48.87212" lon="2.29391">
        <ele>165.60000610352</ele>
        <time>2015-09-28T20:18:56Z</time>
      </trkpt>
      <trkpt lat="48.87216" lon="2.29394">
        <ele>166.80000305176</ele>
        <time>2015-09-28T20:18:58Z</time>
      </trkpt>
      <trkpt lat="48.87231" lon="2.29394">
        <ele>164</ele>
        <time>2015-09-28T20:19:26Z</time>
      </trkpt>
      <trkpt lat="48.87238" lon="2.29393">
        <ele>163.19999694824</ele>
        <time>2015-09-28T20:19:30Z</time>
      </trkpt>
      <trkpt lat="48.87236" lon="2.29423">
        <ele>161.19999694824</ele>
        <time>2015-09-28T20:19:40Z</time>
      </trkpt>
      <trkpt lat="48.87235" lon="2.29453">
        <ele>157</ele>
        <time>2015-09-28T20:19:47Z</time>
      </trkpt>
      <trkpt lat="48.87233" lon="2.29485">
        <ele>146.60000610352</ele>
        <time>2015-09-28T20:19:53Z</time>
      </trkpt>
      <trkpt lat="48.87229" lon="2.29517">
        <ele>138.39999389648</ele>
        <time>2015-09-28T20:19:58Z</time>
      </trkpt>
      <trkpt lat="48.87232" lon="2.29547">
        <ele>129</ele>
        <time>2015-09-28T20:20:04Z</time>
      </trkpt>
      <trkpt lat="48.87239" lon="2.29576">
        <ele>118.80000305176</ele>
        <time>2015-09-28T20:20:11Z</time>
      </trkpt>
      <trkpt lat="48.87251" lon="2.29599">
        <ele>114</ele>
        <time>2015-09-28T20:20:17Z</time>
      </trkpt>
      <trkpt lat="48.87267" lon="2.29616">
        <ele>113</ele>
        <time>2015-09-28T20:20:26Z</time>
      </trkpt>
      <trkpt lat="48.87278" lon="2.29639">
        <ele>112.59999847412</ele>
        <time>2015-09-28T20:20:34Z</time>
      </trkpt>
      <trkpt lat="48.87291" lon="2.29659">
        <ele>112.19999694824</ele>
        <time>2015-09-28T20:20:43Z</time>
      </trkpt>
      <trkpt lat="48.87294" lon="2.29669">
        <ele>111.40000152588</ele>
        <time>2015-09-28T20:20:48Z</time>
      </trkpt>
      <trkpt lat="48.87292" lon="2.29681">
        <ele>107.80000305176</ele>
        <time>2015-09-28T20:20:53Z</time>
      </trkpt>
      <trkpt lat="48.87293" lon="2.29687">
        <ele>105.40000152588</ele>
        <time>2015-09-28T20:20:54Z</time>
      </trkpt>
      <trkpt lat="48.87303" lon="2.29698">
        <ele>94.599998474121</ele>
        <time>2015-09-28T20:21:05Z</time>
      </trkpt>
      <trkpt lat="48.87308" lon="2.297">
        <ele>83.599998474121</ele>
        <time>2015-09-28T20:21:26Z</time>
      </trkpt>
      <trkpt lat="48.87303" lon="2.29717">
        <ele>82.599998474121</ele>
        <time>2015-09-28T20:21:34Z</time>
      </trkpt>
      <trkpt lat="48.87296" lon="2.29731">
        <ele>83</ele>
        <time>2015-09-28T20:21:50Z</time>
      </trkpt>
      <trkpt lat="48.87299" lon="2.29734">
        <ele>81.599998474121</ele>
        <time>2015-09-28T20:21:59Z</time>
      </trkpt>
      <trkpt lat="48.87294" lon="2.29761">
        <ele>79.199996948242</ele>
        <time>2015-09-28T20:22:09Z</time>
      </trkpt>
      <trkpt lat="48.87297" lon="2.29784">
        <ele>77.599998474121</ele>
        <time>2015-09-28T20:22:16Z</time>
      </trkpt>
      <trkpt lat="48.87299" lon="2.29817">
        <ele>77</ele>
        <time>2015-09-28T20:22:27Z</time>
      </trkpt>
      <trkpt lat="48.87296" lon="2.29846">
        <ele>74.599998474121</ele>
        <time>2015-09-28T20:22:36Z</time>
      </trkpt>
      <trkpt lat="48.87295" lon="2.29875">
        <ele>74.800003051758</ele>
        <time>2015-09-28T20:22:45Z</time>
      </trkpt>
      <trkpt lat="48.87293" lon="2.29904">
        <ele>74.400001525879</ele>
        <time>2015-09-28T20:22:52Z</time>
      </trkpt>
      <trkpt lat="48.87282" lon="2.29928">
        <ele>73</ele>
        <time>2015-09-28T20:22:59Z</time>
      </trkpt>
      <trkpt lat="48.87274" lon="2.29953">
        <ele>70.199996948242</ele>
        <time>2015-09-28T20:23:05Z</time>
      </trkpt>
      <trkpt lat="48.87268" lon="2.2998">
        <ele>68.800003051758</ele>
        <time>2015-09-28T20:23:10Z</time>
      </trkpt>
      <trkpt lat="48.87257" lon="2.30008">
        <ele>67.800003051758</ele>
        <time>2015-09-28T20:23:15Z</time>
      </trkpt>
      <trkpt lat="48.87245" lon="2.30032">
        <ele>66.199996948242</ele>
        <time>2015-09-28T20:23:21Z</time>
      </trkpt>
      <trkpt lat="48.87216" lon="2.30039">
        <ele>63.599998474121</ele>
        <time>2015-09-28T20:23:27Z</time>
      </trkpt>
      <trkpt lat="48.87207" lon="2.30063">
        <ele>59</ele>
        <time>2015-09-28T20:23:34Z</time>
      </trkpt>
      <trkpt lat="48.87199" lon="2.30078">
        <ele>56.400001525879</ele>
        <time>2015-09-28T20:23:39Z</time>
      </trkpt>
      <trkpt lat="48.87181" lon="2.30086">
        <ele>51.400001525879</ele>
        <time>2015-09-28T20:23:53Z</time>
      </trkpt>
      <trkpt lat="48.8717" lon="2.30112">
        <ele>49.20000076294</ele>
        <time>2015-09-28T20:23:59Z</time>
      </trkpt>
      <trkpt lat="48.87162" lon="2.30136">
        <ele>47.599998474121</ele>
        <time>2015-09-28T20:24:04Z</time>
      </trkpt>
      <trkpt lat="48.87155" lon="2.30163">
        <ele>45</ele>
        <time>2015-09-28T20:24:08Z</time>
      </trkpt>
      <trkpt lat="48.87149" lon="2.3019">
        <ele>42.79999923706</ele>
        <time>2015-09-28T20:24:12Z</time>
      </trkpt>
      <trkpt lat="48.87139" lon="2.30219">
        <ele>40</ele>
        <time>2015-09-28T20:24:17Z</time>
      </trkpt>
      <trkpt lat="48.87135" lon="2.30233">
        <ele>38.79999923706</ele>
        <time>2015-09-28T20:24:25Z</time>
      </trkpt>
      <trkpt lat="48.87128" lon="2.30222">
        <ele>50.599998474121</ele>
        <time>2015-09-28T20:25:10Z</time>
      </trkpt>
      <trkpt lat="48.87124" lon="2.30237">
        <ele>52.79999923706</ele>
        <time>2015-09-28T20:25:18Z</time>
      </trkpt>
      <trkpt lat="48.87118" lon="2.30267">
        <ele>52.599998474121</ele>
        <time>2015-09-28T20:25:30Z</time>
      </trkpt>
      <trkpt lat="48.87111" lon="2.30294">
        <ele>53.20000076294</ele>
        <time>2015-09-28T20:25:37Z</time>
      </trkpt>
      <trkpt lat="48.87106" lon="2.30321">
        <ele>52</ele>
        <time>2015-09-28T20:25:42Z</time>
      </trkpt>
      <trkpt lat="48.87103" lon="2.3033">
        <ele>50</ele>
        <time>2015-09-28T20:25:46Z</time>
      </trkpt>
      <trkpt lat="48.8709" lon="2.30353">
        <ele>47</ele>
        <time>2015-09-28T20:25:56Z</time>
      </trkpt>
      <trkpt lat="48.87085" lon="2.30364">
        <ele>45.599998474121</ele>
        <time>2015-09-28T20:25:59Z</time>
      </trkpt>
      <trkpt lat="48.87078" lon="2.30391">
        <ele>42.599998474121</ele>
        <time>2015-09-28T20:26:06Z</time>
      </trkpt>
      <trkpt lat="48.87076" lon="2.30424">
        <ele>43.20000076294</ele>
        <time>2015-09-28T20:26:12Z</time>
      </trkpt>
      <trkpt lat="48.87072" lon="2.30455">
        <ele>44.400001525879</ele>
        <time>2015-09-28T20:26:17Z</time>
      </trkpt>
      <trkpt lat="48.87058" lon="2.30477">
        <ele>39.599998474121</ele>
        <time>2015-09-28T20:26:21Z</time>
      </trkpt>
      <trkpt lat="48.8705" lon="2.30501">
        <ele>36.20000076294</ele>
        <time>2015-09-28T20:26:28Z</time>
      </trkpt>
      <trkpt lat="48.8704" lon="2.30525">
        <ele>33</ele>
        <time>2015-09-28T20:26:38Z</time>
      </trkpt>
      <trkpt lat="48.87033" lon="2.30553">
        <ele>33.79999923706</ele>
        <time>2015-09-28T20:26:43Z</time>
      </trkpt>
      <trkpt lat="48.87024" lon="2.30579">
        <ele>35.400001525879</ele>
        <time>2015-09-28T20:26:48Z</time>
      </trkpt>
      <trkpt lat="48.87021" lon="2.30609">
        <ele>38.20000076294</ele>
        <time>2015-09-28T20:26:53Z</time>
      </trkpt>
      <trkpt lat="48.87012" lon="2.30627">
        <ele>39</ele>
        <time>2015-09-28T20:26:59Z</time>
      </trkpt>
      <trkpt lat="48.87003" lon="2.30651">
        <ele>39.79999923706</ele>
        <time>2015-09-28T20:27:05Z</time>
      </trkpt>
      <trkpt lat="48.8699" lon="2.30673">
        <ele>39.20000076294</ele>
        <time>2015-09-28T20:27:11Z</time>
      </trkpt>
      <trkpt lat="48.86978" lon="2.30696">
        <ele>36.79999923706</ele>
        <time>2015-09-28T20:27:17Z</time>
      </trkpt>
      <trkpt lat="48.86974" lon="2.30725">
        <ele>37.79999923706</ele>
        <time>2015-09-28T20:27:23Z</time>
      </trkpt>
      <trkpt lat="48.86971" lon="2.30758">
        <ele>37.20000076294</ele>
        <time>2015-09-28T20:27:28Z</time>
      </trkpt>
      <trkpt lat="48.86965" lon="2.30785">
        <ele>35.79999923706</ele>
        <time>2015-09-28T20:27:33Z</time>
      </trkpt>
      <trkpt lat="48.86953" lon="2.3081">
        <ele>35.20000076294</ele>
        <time>2015-09-28T20:27:38Z</time>
      </trkpt>
      <trkpt lat="48.86944" lon="2.30835">
        <ele>33.599998474121</ele>
        <time>2015-09-28T20:27:43Z</time>
      </trkpt>
      <trkpt lat="48.86936" lon="2.30862">
        <ele>31</ele>
        <time>2015-09-28T20:27:49Z</time>
      </trkpt>
      <trkpt lat="48.86928" lon="2.30874">
        <ele>31.60000038147</ele>
        <time>2015-09-28T20:27:57Z</time>
      </trkpt>
      <trkpt lat="48.86917" lon="2.30873">
        <ele>38.79999923706</ele>
        <time>2015-09-28T20:29:25Z</time>
      </trkpt>
      <trkpt lat="48.86918" lon="2.30866">
        <ele>37</ele>
        <time>2015-09-28T20:30:25Z</time>
      </trkpt>
      <trkpt lat="48.86917" lon="2.30882">
        <ele>37.79999923706</ele>
        <time>2015-09-28T20:31:10Z</time>
      </trkpt>
      <trkpt lat="48.86917" lon="2.30887">
        <ele>37.599998474121</ele>
        <time>2015-09-28T20:31:12Z</time>
      </trkpt>
      <trkpt lat="48.86916" lon="2.30899">
        <ele>36.599998474121</ele>
        <time>2015-09-28T20:31:16Z</time>
      </trkpt>
      <trkpt lat="48.86901" lon="2.30908">
        <ele>35</ele>
        <time>2015-09-28T20:31:27Z</time>
      </trkpt>
      <trkpt lat="48.86881" lon="2.30911">
        <ele>32.79999923706</ele>
        <time>2015-09-28T20:31:35Z</time>
      </trkpt>
      <trkpt lat="48.86871" lon="2.30918">
        <ele>30</ele>
        <time>2015-09-28T20:31:40Z</time>
      </trkpt>
      <trkpt lat="48.86858" lon="2.3093">
        <ele>30.39999961853</ele>
        <time>2015-09-28T20:32:46Z</time>
      </trkpt>
      <trkpt lat="48.86852" lon="2.30933">
        <ele>30.60000038147</ele>
        <time>2015-09-28T20:32:51Z</time>
      </trkpt>
      <trkpt lat="48.86846" lon="2.30941">
        <ele>30.799999237061</ele>
        <time>2015-09-28T20:32:56Z</time>
      </trkpt>
      <trkpt lat="48.86846" lon="2.30943">
        <ele>31</ele>
        <time>2015-09-28T20:32:58Z</time>
      </trkpt>
      <trkpt lat="48.86839" lon="2.30972">
        <ele>31.39999961853</ele>
        <time>2015-09-28T20:33:09Z</time>
      </trkpt>
      <trkpt lat="48.86834" lon="2.30998">
        <ele>31.39999961853</ele>
        <time>2015-09-28T20:33:15Z</time>
      </trkpt>
      <trkpt lat="48.8683" lon="2.31005">
        <ele>31.200000762939</ele>
        <time>2015-09-28T20:33:17Z</time>
      </trkpt>
      <trkpt lat="48.86812" lon="2.31011">
        <ele>29.60000038147</ele>
        <time>2015-09-28T20:33:22Z</time>
      </trkpt>
      <trkpt lat="48.86791" lon="2.31007">
        <ele>28.200000762939</ele>
        <time>2015-09-28T20:33:28Z</time>
      </trkpt>
      <trkpt lat="48.86773" lon="2.31006">
        <ele>28</ele>
        <time>2015-09-28T20:33:32Z</time>
      </trkpt>
      <trkpt lat="48.86767" lon="2.31007">
        <ele>27.799999237061</ele>
        <time>2015-09-28T20:33:33Z</time>
      </trkpt>
      <trkpt lat="48.86748" lon="2.3101">
        <ele>27.200000762939</ele>
        <time>2015-09-28T20:33:37Z</time>
      </trkpt>
      <trkpt lat="48.86743" lon="2.31012">
        <ele>27.200000762939</ele>
        <time>2015-09-28T20:33:38Z</time>
      </trkpt>
      <trkpt lat="48.86737" lon="2.31013">
        <ele>27.200000762939</ele>
        <time>2015-09-28T20:33:39Z</time>
      </trkpt>
      <trkpt lat="48.86715" lon="2.3102">
        <ele>27</ele>
        <time>2015-09-28T20:33:43Z</time>
      </trkpt>
      <trkpt lat="48.86696" lon="2.31023">
        <ele>27.60000038147</ele>
        <time>2015-09-28T20:33:48Z</time>
      </trkpt>
      <trkpt lat="48.86676" lon="2.31029">
        <ele>28.60000038147</ele>
        <time>2015-09-28T20:33:53Z</time>
      </trkpt>
      <trkpt lat="48.8666" lon="2.31033">
        <ele>29.200000762939</ele>
        <time>2015-09-28T20:33:56Z</time>
      </trkpt>
      <trkpt lat="48.86638" lon="2.31039">
        <ele>29.799999237061</ele>
        <time>2015-09-28T20:34:00Z</time>
      </trkpt>
      <trkpt lat="48.86619" lon="2.31044">
        <ele>30.200000762939</ele>
        <time>2015-09-28T20:34:04Z</time>
      </trkpt>
      <trkpt lat="48.86607" lon="2.31046">
        <ele>30.799999237061</ele>
        <time>2015-09-28T20:34:06Z</time>
      </trkpt>
      <trkpt lat="48.86586" lon="2.31048">
        <ele>31.60000038147</ele>
        <time>2015-09-28T20:34:10Z</time>
      </trkpt>
      <trkpt lat="48.86567" lon="2.31049">
        <ele>32.79999923706</ele>
        <time>2015-09-28T20:34:14Z</time>
      </trkpt>
      <trkpt lat="48.86547" lon="2.31048">
        <ele>34.79999923706</ele>
        <time>2015-09-28T20:34:19Z</time>
      </trkpt>
      <trkpt lat="48.86541" lon="2.3105">
        <ele>35.79999923706</ele>
        <time>2015-09-28T20:34:21Z</time>
      </trkpt>
      <trkpt lat="48.8653" lon="2.31053">
        <ele>36.79999923706</ele>
        <time>2015-09-28T20:34:25Z</time>
      </trkpt>
      <trkpt lat="48.86521" lon="2.31055">
        <ele>38.599998474121</ele>
        <time>2015-09-28T20:34:30Z</time>
      </trkpt>
      <trkpt lat="48.86498" lon="2.31056">
        <ele>39.400001525879</ele>
        <time>2015-09-28T20:34:40Z</time>
      </trkpt>
      <trkpt lat="48.86479" lon="2.31053">
        <ele>36.400001525879</ele>
        <time>2015-09-28T20:34:47Z</time>
      </trkpt>
      <trkpt lat="48.86461" lon="2.31058">
        <ele>31.60000038147</ele>
        <time>2015-09-28T20:34:54Z</time>
      </trkpt>
      <trkpt lat="48.8646" lon="2.31061">
        <ele>30.60000038147</ele>
        <time>2015-09-28T20:34:55Z</time>
      </trkpt>
      <trkpt lat="48.86459" lon="2.31075">
        <ele>29.39999961853</ele>
        <time>2015-09-28T20:34:59Z</time>
      </trkpt>
      <trkpt lat="48.86456" lon="2.31103">
        <ele>29.200000762939</ele>
        <time>2015-09-28T20:35:05Z</time>
      </trkpt>
      <trkpt lat="48.86456" lon="2.3113">
        <ele>29.200000762939</ele>
        <time>2015-09-28T20:35:11Z</time>
      </trkpt>
      <trkpt lat="48.86458" lon="2.31162">
        <ele>28.799999237061</ele>
        <time>2015-09-28T20:35:16Z</time>
      </trkpt>
      <trkpt lat="48.86462" lon="2.31193">
        <ele>28.39999961853</ele>
        <time>2015-09-28T20:35:20Z</time>
      </trkpt>
      <trkpt lat="48.86465" lon="2.31224">
        <ele>28.39999961853</ele>
        <time>2015-09-28T20:35:25Z</time>
      </trkpt>
      <trkpt lat="48.86465" lon="2.31251">
        <ele>28.39999961853</ele>
        <time>2015-09-28T20:35:30Z</time>
      </trkpt>
      <trkpt lat="48.86466" lon="2.31287">
        <ele>30.200000762939</ele>
        <time>2015-09-28T20:35:35Z</time>
      </trkpt>
      <trkpt lat="48.86468" lon="2.31318">
        <ele>33.599998474121</ele>
        <time>2015-09-28T20:35:39Z</time>
      </trkpt>
      <trkpt lat="48.86467" lon="2.3134">
        <ele>35.599998474121</ele>
        <time>2015-09-28T20:35:44Z</time>
      </trkpt>
      <trkpt lat="48.86461" lon="2.31342">
        <ele>36</ele>
        <time>2015-09-28T20:35:50Z</time>
      </trkpt>
      <trkpt lat="48.86459" lon="2.31366">
        <ele>31</ele>
        <time>2015-09-28T20:36:12Z</time>
      </trkpt>
      <trkpt lat="48.86463" lon="2.31396">
        <ele>30</ele>
        <time>2015-09-28T20:36:20Z</time>
      </trkpt>
      <trkpt lat="48.86465" lon="2.31424">
        <ele>29.799999237061</ele>
        <time>2015-09-28T20:36:25Z</time>
      </trkpt>
      <trkpt lat="48.86466" lon="2.31455">
        <ele>29.39999961853</ele>
        <time>2015-09-28T20:36:30Z</time>
      </trkpt>
      <trkpt lat="48.86466" lon="2.31484">
        <ele>29.60000038147</ele>
        <time>2015-09-28T20:36:34Z</time>
      </trkpt>
      <trkpt lat="48.86468" lon="2.31514">
        <ele>30</ele>
        <time>2015-09-28T20:36:38Z</time>
      </trkpt>
      <trkpt lat="48.8647" lon="2.31542">
        <ele>29.39999961853</ele>
        <time>2015-09-28T20:36:42Z</time>
      </trkpt>
      <trkpt lat="48.86473" lon="2.31574">
        <ele>28.799999237061</ele>
        <time>2015-09-28T20:36:46Z</time>
      </trkpt>
      <trkpt lat="48.86474" lon="2.31605">
        <ele>28.200000762939</ele>
        <time>2015-09-28T20:36:50Z</time>
      </trkpt>
      <trkpt lat="48.86476" lon="2.31626">
        <ele>27.799999237061</ele>
        <time>2015-09-28T20:36:53Z</time>
      </trkpt>
      <trkpt lat="48.86479" lon="2.31657">
        <ele>27.60000038147</ele>
        <time>2015-09-28T20:36:57Z</time>
      </trkpt>
      <trkpt lat="48.86482" lon="2.31681">
        <ele>26.799999237061</ele>
        <time>2015-09-28T20:37:00Z</time>
      </trkpt>
      <trkpt lat="48.86484" lon="2.31713">
        <ele>26</ele>
        <time>2015-09-28T20:37:04Z</time>
      </trkpt>
      <trkpt lat="48.86489" lon="2.31743">
        <ele>26.200000762939</ele>
        <time>2015-09-28T20:37:08Z</time>
      </trkpt>
      <trkpt lat="48.86492" lon="2.31772">
        <ele>24.60000038147</ele>
        <time>2015-09-28T20:37:12Z</time>
      </trkpt>
      <trkpt lat="48.86492" lon="2.3178">
        <ele>24.799999237061</ele>
        <time>2015-09-28T20:37:13Z</time>
      </trkpt>
      <trkpt lat="48.86493" lon="2.31798">
        <ele>27.60000038147</ele>
        <time>2015-09-28T20:37:15Z</time>
      </trkpt>
      <trkpt lat="48.8649" lon="2.31826">
        <ele>30.39999961853</ele>
        <time>2015-09-28T20:37:18Z</time>
      </trkpt>
      <trkpt lat="48.86472" lon="2.31846">
        <ele>31</ele>
        <time>2015-09-28T20:37:21Z</time>
      </trkpt>
      <trkpt lat="48.86459" lon="2.3186">
        <ele>26</ele>
        <time>2015-09-28T20:37:25Z</time>
      </trkpt>
      <trkpt lat="48.86458" lon="2.31862">
        <ele>26</ele>
        <time>2015-09-28T20:37:26Z</time>
      </trkpt>
      <trkpt lat="48.86451" lon="2.31874">
        <ele>25.799999237061</ele>
        <time>2015-09-28T20:37:30Z</time>
      </trkpt>
      <trkpt lat="48.86449" lon="2.31882">
        <ele>25.799999237061</ele>
        <time>2015-09-28T20:37:32Z</time>
      </trkpt>
      <trkpt lat="48.86442" lon="2.31909">
        <ele>28.799999237061</ele>
        <time>2015-09-28T20:37:38Z</time>
      </trkpt>
      <trkpt lat="48.86433" lon="2.31936">
        <ele>29.799999237061</ele>
        <time>2015-09-28T20:37:44Z</time>
      </trkpt>
      <trkpt lat="48.86424" lon="2.31962">
        <ele>30.60000038147</ele>
        <time>2015-09-28T20:37:50Z</time>
      </trkpt>
      <trkpt lat="48.86415" lon="2.31984">
        <ele>31.799999237061</ele>
        <time>2015-09-28T20:37:59Z</time>
      </trkpt>
      <trkpt lat="48.86406" lon="2.31999">
        <ele>28.200000762939</ele>
        <time>2015-09-28T20:38:50Z</time>
      </trkpt>
      <trkpt lat="48.86399" lon="2.32025">
        <ele>27.799999237061</ele>
        <time>2015-09-28T20:38:58Z</time>
      </trkpt>
      <trkpt lat="48.86393" lon="2.32039">
        <ele>27.60000038147</ele>
        <time>2015-09-28T20:39:03Z</time>
      </trkpt>
      <trkpt lat="48.86384" lon="2.32064">
        <ele>26.39999961853</ele>
        <time>2015-09-28T20:39:09Z</time>
      </trkpt>
      <trkpt lat="48.86376" lon="2.32096">
        <ele>25.39999961853</ele>
        <time>2015-09-28T20:39:14Z</time>
      </trkpt>
      <trkpt lat="48.8637" lon="2.32124">
        <ele>24.60000038147</ele>
        <time>2015-09-28T20:39:18Z</time>
      </trkpt>
      <trkpt lat="48.86362" lon="2.32153">
        <ele>25.200000762939</ele>
        <time>2015-09-28T20:39:22Z</time>
      </trkpt>
      <trkpt lat="48.86354" lon="2.3218">
        <ele>25.799999237061</ele>
        <time>2015-09-28T20:39:27Z</time>
      </trkpt>
      <trkpt lat="48.86354" lon="2.32185">
        <ele>26</ele>
        <time>2015-09-28T20:39:30Z</time>
      </trkpt>
      <trkpt lat="48.86353" lon="2.32199">
        <ele>25.39999961853</ele>
        <time>2015-09-28T20:39:35Z</time>
      </trkpt>
      <trkpt lat="48.86345" lon="2.32224">
        <ele>25.39999961853</ele>
        <time>2015-09-28T20:39:39Z</time>
      </trkpt>
      <trkpt lat="48.86337" lon="2.32249">
        <ele>25.39999961853</ele>
        <time>2015-09-28T20:39:42Z</time>
      </trkpt>
      <trkpt lat="48.86329" lon="2.32276">
        <ele>25.39999961853</ele>
        <time>2015-09-28T20:39:45Z</time>
      </trkpt>
      <trkpt lat="48.86321" lon="2.32305">
        <ele>25.200000762939</ele>
        <time>2015-09-28T20:39:48Z</time>
      </trkpt>
      <trkpt lat="48.86311" lon="2.32336">
        <ele>25.200000762939</ele>
        <time>2015-09-28T20:39:51Z</time>
      </trkpt>
      <trkpt lat="48.86302" lon="2.32367">
        <ele>25</ele>
        <time>2015-09-28T20:39:54Z</time>
      </trkpt>
      <trkpt lat="48.86292" lon="2.32398">
        <ele>24.799999237061</ele>
        <time>2015-09-28T20:39:57Z</time>
      </trkpt>
      <trkpt lat="48.86282" lon="2.32429">
        <ele>24.200000762939</ele>
        <time>2015-09-28T20:40:00Z</time>
      </trkpt>
      <trkpt lat="48.86273" lon="2.32459">
        <ele>24.60000038147</ele>
        <time>2015-09-28T20:40:03Z</time>
      </trkpt>
      <trkpt lat="48.86265" lon="2.32489">
        <ele>25.200000762939</ele>
        <time>2015-09-28T20:40:06Z</time>
      </trkpt>
      <trkpt lat="48.86259" lon="2.32508">
        <ele>25.60000038147</ele>
        <time>2015-09-28T20:40:08Z</time>
      </trkpt>
      <trkpt lat="48.86248" lon="2.32534">
        <ele>25.60000038147</ele>
        <time>2015-09-28T20:40:11Z</time>
      </trkpt>
      <trkpt lat="48.86237" lon="2.32561">
        <ele>25.60000038147</ele>
        <time>2015-09-28T20:40:14Z</time>
      </trkpt>
      <trkpt lat="48.86226" lon="2.32589">
        <ele>25.60000038147</ele>
        <time>2015-09-28T20:40:17Z</time>
      </trkpt>
      <trkpt lat="48.86216" lon="2.32617">
        <ele>25.60000038147</ele>
        <time>2015-09-28T20:40:20Z</time>
      </trkpt>
      <trkpt lat="48.86207" lon="2.32646">
        <ele>25.39999961853</ele>
        <time>2015-09-28T20:40:23Z</time>
      </trkpt>
      <trkpt lat="48.86198" lon="2.32675">
        <ele>25</ele>
        <time>2015-09-28T20:40:26Z</time>
      </trkpt>
      <trkpt lat="48.86189" lon="2.32704">
        <ele>25.200000762939</ele>
        <time>2015-09-28T20:40:29Z</time>
      </trkpt>
      <trkpt lat="48.86179" lon="2.32734">
        <ele>24.799999237061</ele>
        <time>2015-09-28T20:40:32Z</time>
      </trkpt>
      <trkpt lat="48.8617" lon="2.32764">
        <ele>24.799999237061</ele>
        <time>2015-09-28T20:40:35Z</time>
      </trkpt>
      <trkpt lat="48.8616" lon="2.32793">
        <ele>24.799999237061</ele>
        <time>2015-09-28T20:40:38Z</time>
      </trkpt>
      <trkpt lat="48.8615" lon="2.32823">
        <ele>24.799999237061</ele>
        <time>2015-09-28T20:40:41Z</time>
      </trkpt>
      <trkpt lat="48.86142" lon="2.3285">
        <ele>25.200000762939</ele>
        <time>2015-09-28T20:40:44Z</time>
      </trkpt>
      <trkpt lat="48.86132" lon="2.32878">
        <ele>25.60000038147</ele>
        <time>2015-09-28T20:40:47Z</time>
      </trkpt>
      <trkpt lat="48.86122" lon="2.32905">
        <ele>25.60000038147</ele>
        <time>2015-09-28T20:40:50Z</time>
      </trkpt>
      <trkpt lat="48.86113" lon="2.32931">
        <ele>25.60000038147</ele>
        <time>2015-09-28T20:40:53Z</time>
      </trkpt>
      <trkpt lat="48.86103" lon="2.3296">
        <ele>25.799999237061</ele>
        <time>2015-09-28T20:40:57Z</time>
      </trkpt>
      <trkpt lat="48.86093" lon="2.32988">
        <ele>27.60000038147</ele>
        <time>2015-09-28T20:41:02Z</time>
      </trkpt>
      <trkpt lat="48.86088" lon="2.32996">
        <ele>29.200000762939</ele>
        <time>2015-09-28T20:41:11Z</time>
      </trkpt>
      <trkpt lat="48.86088" lon="2.32994">
        <ele>29.39999961853</ele>
        <time>2015-09-28T20:41:13Z</time>
      </trkpt>
      <trkpt lat="48.86105" lon="2.32998">
        <ele>30.200000762939</ele>
        <time>2015-09-28T20:41:33Z</time>
      </trkpt>
      <trkpt lat="48.86109" lon="2.33007">
        <ele>33.20000076294</ele>
        <time>2015-09-28T20:43:07Z</time>
      </trkpt>
      <trkpt lat="48.86124" lon="2.33019">
        <ele>32.79999923706</ele>
        <time>2015-09-28T20:43:11Z</time>
      </trkpt>
      <trkpt lat="48.86143" lon="2.33033">
        <ele>31.799999237061</ele>
        <time>2015-09-28T20:43:14Z</time>
      </trkpt>
      <trkpt lat="48.86165" lon="2.33049">
        <ele>30.799999237061</ele>
        <time>2015-09-28T20:43:17Z</time>
      </trkpt>
      <trkpt lat="48.8619" lon="2.33066">
        <ele>30.200000762939</ele>
        <time>2015-09-28T20:43:20Z</time>
      </trkpt>
      <trkpt lat="48.86208" lon="2.3308">
        <ele>29.799999237061</ele>
        <time>2015-09-28T20:43:22Z</time>
      </trkpt>
      <trkpt lat="48.86227" lon="2.33094">
        <ele>29.39999961853</ele>
        <time>2015-09-28T20:43:24Z</time>
      </trkpt>
      <trkpt lat="48.86247" lon="2.3311">
        <ele>29</ele>
        <time>2015-09-28T20:43:26Z</time>
      </trkpt>
      <trkpt lat="48.86328" lon="2.33163">
        <ele>37.599998474121</ele>
        <time>2015-09-28T20:43:37Z</time>
      </trkpt>
      <trkpt lat="48.86339" lon="2.33175">
        <ele>35.79999923706</ele>
        <time>2015-09-28T20:43:40Z</time>
      </trkpt>
      <trkpt lat="48.86354" lon="2.33191">
        <ele>32.20000076294</ele>
        <time>2015-09-28T20:43:47Z</time>
      </trkpt>
      <trkpt lat="48.86356" lon="2.33193">
        <ele>31.60000038147</ele>
        <time>2015-09-28T20:43:48Z</time>
      </trkpt>
      <trkpt lat="48.86369" lon="2.33207">
        <ele>32.79999923706</ele>
        <time>2015-09-28T20:43:56Z</time>
      </trkpt>
      <trkpt lat="48.86385" lon="2.33221">
        <ele>41</ele>
        <time>2015-09-28T20:44:15Z</time>
      </trkpt>
      <trkpt lat="48.86404" lon="2.3323">
        <ele>41.400001525879</ele>
        <time>2015-09-28T20:44:20Z</time>
      </trkpt>
      <trkpt lat="48.86422" lon="2.33242">
        <ele>40.79999923706</ele>
        <time>2015-09-28T20:44:25Z</time>
      </trkpt>
      <trkpt lat="48.8644" lon="2.3325">
        <ele>42.79999923706</ele>
        <time>2015-09-28T20:44:31Z</time>
      </trkpt>
      <trkpt lat="48.86449" lon="2.33261">
        <ele>41.79999923706</ele>
        <time>2015-09-28T20:44:35Z</time>
      </trkpt>
      <trkpt lat="48.86451" lon="2.33268">
        <ele>41.599998474121</ele>
        <time>2015-09-28T20:44:37Z</time>
      </trkpt>
      <trkpt lat="48.86445" lon="2.33294">
        <ele>43</ele>
        <time>2015-09-28T20:44:42Z</time>
      </trkpt>
      <trkpt lat="48.86434" lon="2.33319">
        <ele>45.79999923706</ele>
        <time>2015-09-28T20:44:47Z</time>
      </trkpt>
      <trkpt lat="48.86424" lon="2.33344">
        <ele>48.79999923706</ele>
        <time>2015-09-28T20:44:51Z</time>
      </trkpt>
      <trkpt lat="48.86414" lon="2.3337">
        <ele>51.599998474121</ele>
        <time>2015-09-28T20:44:56Z</time>
      </trkpt>
      <trkpt lat="48.86401" lon="2.33392">
        <ele>55.599998474121</ele>
        <time>2015-09-28T20:45:03Z</time>
      </trkpt>
      <trkpt lat="48.86401" lon="2.33402">
        <ele>55.79999923706</ele>
        <time>2015-09-28T20:45:07Z</time>
      </trkpt>
      <trkpt lat="48.86386" lon="2.33421">
        <ele>51</ele>
        <time>2015-09-28T20:45:19Z</time>
      </trkpt>
      <trkpt lat="48.86375" lon="2.33444">
        <ele>50.79999923706</ele>
        <time>2015-09-28T20:45:23Z</time>
      </trkpt>
      <trkpt lat="48.8636" lon="2.33467">
        <ele>51.20000076294</ele>
        <time>2015-09-28T20:45:27Z</time>
      </trkpt>
      <trkpt lat="48.86352" lon="2.33496">
        <ele>52.599998474121</ele>
        <time>2015-09-28T20:45:32Z</time>
      </trkpt>
      <trkpt lat="48.86346" lon="2.33526">
        <ele>54.400001525879</ele>
        <time>2015-09-28T20:45:38Z</time>
      </trkpt>
      <trkpt lat="48.86333" lon="2.33549">
        <ele>57.79999923706</ele>
        <time>2015-09-28T20:45:43Z</time>
      </trkpt>
      <trkpt lat="48.86323" lon="2.33573">
        <ele>60.599998474121</ele>
        <time>2015-09-28T20:45:47Z</time>
      </trkpt>
      <trkpt lat="48.86316" lon="2.336">
        <ele>63.79999923706</ele>
        <time>2015-09-28T20:45:51Z</time>
      </trkpt>
      <trkpt lat="48.86314" lon="2.3363">
        <ele>67</ele>
        <time>2015-09-28T20:45:55Z</time>
      </trkpt>
      <trkpt lat="48.86311" lon="2.33644">
        <ele>68.800003051758</ele>
        <time>2015-09-28T20:45:57Z</time>
      </trkpt>
      <trkpt lat="48.86304" lon="2.33672">
        <ele>70.400001525879</ele>
        <time>2015-09-28T20:46:01Z</time>
      </trkpt>
      <trkpt lat="48.86293" lon="2.33698">
        <ele>74.400001525879</ele>
        <time>2015-09-28T20:46:05Z</time>
      </trkpt>
      <trkpt lat="48.86284" lon="2.33725">
        <ele>79.199996948242</ele>
        <time>2015-09-28T20:46:09Z</time>
      </trkpt>
      <trkpt lat="48.86276" lon="2.33753">
        <ele>86.400001525879</ele>
        <time>2015-09-28T20:46:13Z</time>
      </trkpt>
      <trkpt lat="48.86271" lon="2.33782">
        <ele>88.800003051758</ele>
        <time>2015-09-28T20:46:17Z</time>
      </trkpt>
      <trkpt lat="48.86263" lon="2.33809">
        <ele>91.400001525879</ele>
        <time>2015-09-28T20:46:21Z</time>
      </trkpt>
      <trkpt lat="48.86252" lon="2.33838">
        <ele>93.400001525879</ele>
        <time>2015-09-28T20:46:26Z</time>
      </trkpt>
      <trkpt lat="48.86246" lon="2.33865">
        <ele>95.599998474121</ele>
        <time>2015-09-28T20:46:30Z</time>
      </trkpt>
      <trkpt lat="48.86241" lon="2.33895">
        <ele>97.400001525879</ele>
        <time>2015-09-28T20:46:34Z</time>
      </trkpt>
      <trkpt lat="48.86237" lon="2.33922">
        <ele>99.599998474121</ele>
        <time>2015-09-28T20:46:38Z</time>
      </trkpt>
      <trkpt lat="48.86227" lon="2.33952">
        <ele>99.400001525879</ele>
        <time>2015-09-28T20:46:42Z</time>
      </trkpt>
      <trkpt lat="48.86222" lon="2.33982">
        <ele>101.59999847412</ele>
        <time>2015-09-28T20:46:46Z</time>
      </trkpt>
      <trkpt lat="48.86218" lon="2.34011">
        <ele>106</ele>
        <time>2015-09-28T20:46:50Z</time>
      </trkpt>
      <trkpt lat="48.86195" lon="2.34024">
        <ele>106.80000305176</ele>
        <time>2015-09-28T20:46:54Z</time>
      </trkpt>
      <trkpt lat="48.86189" lon="2.34045">
        <ele>110</ele>
        <time>2015-09-28T20:46:58Z</time>
      </trkpt>
      <trkpt lat="48.86185" lon="2.34068">
        <ele>114.59999847412</ele>
        <time>2015-09-28T20:47:04Z</time>
      </trkpt>
      <trkpt lat="48.86186" lon="2.34077">
        <ele>116</ele>
        <time>2015-09-28T20:47:06Z</time>
      </trkpt>
      <trkpt lat="48.8618" lon="2.34099">
        <ele>118.59999847412</ele>
        <time>2015-09-28T20:47:17Z</time>
      </trkpt>
      <trkpt lat="48.86179" lon="2.34101">
        <ele>118</ele>
        <time>2015-09-28T20:47:18Z</time>
      </trkpt>
      <trkpt lat="48.8617" lon="2.34125">
        <ele>116</ele>
        <time>2015-09-28T20:47:23Z</time>
      </trkpt>
      <trkpt lat="48.8617" lon="2.34139">
        <ele>115.40000152588</ele>
        <time>2015-09-28T20:47:25Z</time>
      </trkpt>
      <trkpt lat="48.86169" lon="2.34169">
        <ele>115.80000305176</ele>
        <time>2015-09-28T20:47:29Z</time>
      </trkpt>
      <trkpt lat="48.86159" lon="2.342">
        <ele>117.80000305176</ele>
        <time>2015-09-28T20:47:34Z</time>
      </trkpt>
      <trkpt lat="48.86145" lon="2.34225">
        <ele>119</ele>
        <time>2015-09-28T20:47:39Z</time>
      </trkpt>
      <trkpt lat="48.86144" lon="2.34255">
        <ele>119.40000152588</ele>
        <time>2015-09-28T20:47:42Z</time>
      </trkpt>
      <trkpt lat="48.86143" lon="2.34283">
        <ele>120.19999694824</ele>
        <time>2015-09-28T20:47:45Z</time>
      </trkpt>
      <trkpt lat="48.86134" lon="2.34311">
        <ele>123.59999847412</ele>
        <time>2015-09-28T20:47:49Z</time>
      </trkpt>
      <trkpt lat="48.8613" lon="2.34335">
        <ele>128.19999694824</ele>
        <time>2015-09-28T20:47:55Z</time>
      </trkpt>
      <trkpt lat="48.86129" lon="2.34347">
        <ele>129</ele>
        <time>2015-09-28T20:47:57Z</time>
      </trkpt>
      <trkpt lat="48.86126" lon="2.34358">
        <ele>130</ele>
        <time>2015-09-28T20:47:59Z</time>
      </trkpt>
      <trkpt lat="48.86122" lon="2.3439">
        <ele>131.19999694824</ele>
        <time>2015-09-28T20:48:04Z</time>
      </trkpt>
      <trkpt lat="48.86124" lon="2.34422">
        <ele>131.39999389648</ele>
        <time>2015-09-28T20:48:07Z</time>
      </trkpt>
      <trkpt lat="48.86123" lon="2.34454">
        <ele>130.60000610352</ele>
        <time>2015-09-28T20:48:11Z</time>
      </trkpt>
      <trkpt lat="48.86121" lon="2.34461">
        <ele>129.80000305176</ele>
        <time>2015-09-28T20:48:13Z</time>
      </trkpt>
      <trkpt lat="48.86115" lon="2.34475">
        <ele>129.80000305176</ele>
        <time>2015-09-28T20:48:16Z</time>
      </trkpt>
      <trkpt lat="48.86111" lon="2.34498">
        <ele>129.80000305176</ele>
        <time>2015-09-28T20:48:19Z</time>
      </trkpt>
      <trkpt lat="48.86107" lon="2.34509">
        <ele>131</ele>
        <time>2015-09-28T20:48:21Z</time>
      </trkpt>
      <trkpt lat="48.86102" lon="2.3454">
        <ele>131</ele>
        <time>2015-09-28T20:48:25Z</time>
      </trkpt>
      <trkpt lat="48.861" lon="2.34557">
        <ele>130.19999694824</ele>
        <time>2015-09-28T20:48:27Z</time>
      </trkpt>
      <trkpt lat="48.86098" lon="2.34573">
        <ele>129.39999389648</ele>
        <time>2015-09-28T20:48:29Z</time>
      </trkpt>
      <trkpt lat="48.86087" lon="2.34595">
        <ele>128.39999389648</ele>
        <time>2015-09-28T20:48:33Z</time>
      </trkpt>
      <trkpt lat="48.86071" lon="2.34616">
        <ele>130.39999389648</ele>
        <time>2015-09-28T20:48:38Z</time>
      </trkpt>
      <trkpt lat="48.86056" lon="2.34632">
        <ele>132.19999694824</ele>
        <time>2015-09-28T20:48:42Z</time>
      </trkpt>
      <trkpt lat="48.86036" lon="2.34637">
        <ele>132</ele>
        <time>2015-09-28T20:48:46Z</time>
      </trkpt>
      <trkpt lat="48.86018" lon="2.34649">
        <ele>132.19999694824</ele>
        <time>2015-09-28T20:48:49Z</time>
      </trkpt>
      <trkpt lat="48.86013" lon="2.3465">
        <ele>132.39999389648</ele>
        <time>2015-09-28T20:48:50Z</time>
      </trkpt>
      <trkpt lat="48.85997" lon="2.34657">
        <ele>132.80000305176</ele>
        <time>2015-09-28T20:48:54Z</time>
      </trkpt>
      <trkpt lat="48.85989" lon="2.34663">
        <ele>132.80000305176</ele>
        <time>2015-09-28T20:48:58Z</time>
      </trkpt>
      <trkpt lat="48.85984" lon="2.34672">
        <ele>131.80000305176</ele>
        <time>2015-09-28T20:49:01Z</time>
      </trkpt>
      <trkpt lat="48.85981" lon="2.34672">
        <ele>130.60000610352</ele>
        <time>2015-09-28T20:49:04Z</time>
      </trkpt>
      <trkpt lat="48.85979" lon="2.34662">
        <ele>130.19999694824</ele>
        <time>2015-09-28T20:49:09Z</time>
      </trkpt>
      <trkpt lat="48.8598" lon="2.34663">
        <ele>130.60000610352</ele>
        <time>2015-09-28T20:49:11Z</time>
      </trkpt>
      <trkpt lat="48.8597" lon="2.34687">
        <ele>127.59999847412</ele>
        <time>2015-09-28T20:49:17Z</time>
      </trkpt>
      <trkpt lat="48.85969" lon="2.34688">
        <ele>127.59999847412</ele>
        <time>2015-09-28T20:49:18Z</time>
      </trkpt>
    </trkseg>
  </trk>
</gpx>